Time;durP1;ratioP1;P1;durP2;ratioP2;P2;SDS_P1;SDS_P2;PMS_P1;PMS_P2;Temp;Humidity;BMP_temperature;BMP_pressure;BME280_temperature;BME280_humidity;BME280_pressure;Samples;Min_cycle;Max_cycle;Signal;HPM_P1;HPM_P2
2023/07/23 00:01:46;;;;;;;11.57;6.18;;;14.40;99.90;;;;;;5053834;28;20484;-64
2023/07/23 00:04:13;;;;;;;9.45;6.28;;;14.40;99.90;;;;;;5071207;28;20040;-64
2023/07/23 00:06:41;;;;;;;11.15;5.70;;;14.40;99.90;;;;;;5053456;28;20407;-64
2023/07/23 00:09:08;;;;;;;12.05;5.82;;;14.40;99.90;;;;;;5053365;28;20109;-64
2023/07/23 00:11:36;;;;;;;10.13;6.47;;;14.40;99.90;;;;;;5053294;28;20056;-63
2023/07/23 00:14:03;;;;;;;10.18;5.90;;;14.40;99.90;;;;;;5069751;28;20496;-63
2023/07/23 00:16:30;;;;;;;12.82;6.47;;;14.40;99.90;;;;;;5071445;28;20053;-63
2023/07/23 00:18:57;;;;;;;10.68;5.88;;;14.30;99.90;;;;;;5071161;28;20094;-63
2023/07/23 00:21:24;;;;;;;8.32;5.43;;;14.30;99.90;;;;;;5071511;28;20086;-64
2023/07/23 00:23:51;;;;;;;12.18;6.15;;;14.30;99.90;;;;;;5055860;28;20103;-63
2023/07/23 00:26:18;;;;;;;13.60;6.97;;;14.30;99.90;;;;;;5074392;28;20511;-64
2023/07/23 00:28:46;;;;;;;8.52;5.97;;;14.30;99.90;;;;;;5075496;28;20045;-64
2023/07/23 00:31:13;;;;;;;12.02;6.70;;;14.30;99.90;;;;;;5057095;28;20519;-64
2023/07/23 00:33:40;;;;;;;10.52;5.78;;;14.30;99.90;;;;;;5056463;28;20041;-63
2023/07/23 00:36:07;;;;;;;9.40;5.68;;;14.30;99.90;;;;;;5074788;28;20060;-64
2023/07/23 00:38:34;;;;;;;12.88;6.53;;;14.30;99.90;;;;;;5075054;28;20082;-63
2023/07/23 00:41:01;;;;;;;8.63;5.13;;;14.30;99.90;;;;;;5074319;28;20052;-64
2023/07/23 00:43:28;;;;;;;10.95;5.88;;;14.30;99.90;;;;;;5074789;28;20118;-64
2023/07/23 00:45:57;;;;;;;10.23;6.10;;;14.20;99.90;;;;;;5073970;28;20052;-64
2023/07/23 00:48:24;;;;;;;7.93;5.57;;;14.20;99.90;;;;;;5056997;28;20055;-63
2023/07/23 00:50:52;;;;;;;9.00;6.18;;;14.20;99.90;;;;;;5056827;28;20058;-63
2023/07/23 00:53:19;;;;;;;14.63;6.95;;;14.20;99.90;;;;;;5073912;28;20450;-64
2023/07/23 00:55:46;;;;;;;10.82;6.90;;;14.20;99.90;;;;;;5054490;28;20036;-63
2023/07/23 00:58:13;;;;;;;11.00;5.97;;;14.10;99.90;;;;;;5074576;28;20052;-64
2023/07/23 01:00:40;;;;;;;9.80;6.82;;;14.20;99.90;;;;;;5071948;28;20052;-64
2023/07/23 01:03:08;;;;;;;10.02;6.22;;;14.20;99.90;;;;;;5074617;28;20044;-64
2023/07/23 01:05:36;;;;;;;10.63;6.30;;;14.20;99.90;;;;;;5054410;28;20051;-65
2023/07/23 01:08:05;;;;;;;10.05;6.40;;;14.20;99.90;;;;;;5055523;28;20063;-65
2023/07/23 01:10:33;;;;;;;10.40;6.75;;;14.20;99.90;;;;;;5074283;28;20041;-64
2023/07/23 01:13:00;;;;;;;11.32;6.95;;;14.20;99.90;;;;;;5074249;28;20095;-64
2023/07/23 01:15:28;;;;;;;11.13;6.60;;;14.20;99.90;;;;;;5073909;28;20051;-65
2023/07/23 01:17:57;;;;;;;8.25;5.80;;;14.20;99.90;;;;;;5072517;28;20086;-64
2023/07/23 01:20:25;;;;;;;11.20;6.65;;;14.20;99.90;;;;;;5074303;28;20055;-61
2023/07/23 01:22:54;;;;;;;10.07;6.72;;;14.20;99.90;;;;;;5073643;28;20041;-62
2023/07/23 01:25:21;;;;;;;11.25;6.88;;;14.20;99.90;;;;;;5071829;28;20049;-62
2023/07/23 01:27:48;;;;;;;10.82;6.38;;;14.20;99.90;;;;;;5074008;28;20558;-63
2023/07/23 01:30:15;;;;;;;9.60;6.45;;;14.20;99.90;;;;;;5071390;28;20090;-63
2023/07/23 01:32:42;;;;;;;10.48;7.00;;;14.20;99.90;;;;;;5056086;28;20488;-63
2023/07/23 01:35:13;;;;;;;10.45;5.70;;;14.20;99.90;;;;;;5052818;28;20067;-62
2023/07/23 01:37:40;;;;;;;8.52;6.13;;;14.20;99.90;;;;;;5055917;28;20127;-62
2023/07/23 01:40:09;;;;;;;10.48;6.00;;;14.20;99.90;;;;;;5056203;28;20101;-63
2023/07/23 01:42:36;;;;;;;10.45;6.72;;;14.20;99.90;;;;;;5071174;28;20041;-62
2023/07/23 01:45:04;;;;;;;9.25;5.90;;;14.20;99.90;;;;;;5074034;28;20049;-62
2023/07/23 01:47:31;;;;;;;12.35;6.30;;;14.20;99.90;;;;;;5073675;28;20072;-62
2023/07/23 01:49:58;;;;;;;9.77;6.30;;;14.20;99.90;;;;;;5055334;28;20060;-63
2023/07/23 01:52:25;;;;;;;8.38;6.03;;;14.20;99.90;;;;;;5073354;28;20562;-66
2023/07/23 01:54:52;;;;;;;8.55;5.88;;;14.20;99.90;;;;;;5073693;28;20511;-66
2023/07/23 01:57:20;;;;;;;11.05;5.28;;;14.20;99.90;;;;;;5073014;28;20059;-65
2023/07/23 01:59:47;;;;;;;8.73;5.78;;;14.30;99.90;;;;;;5073529;28;20049;-65
2023/07/23 02:02:14;;;;;;;11.45;5.65;;;14.30;99.90;;;;;;5055111;28;20101;-66
2023/07/23 02:04:41;;;;;;;9.23;5.72;;;14.30;99.90;;;;;;5072736;28;20049;-66
2023/07/23 02:07:08;;;;;;;8.20;5.55;;;14.30;99.90;;;;;;5055047;28;20049;-66
2023/07/23 02:09:35;;;;;;;9.27;5.40;;;14.30;99.90;;;;;;5073123;28;20507;-65
2023/07/23 02:12:02;;;;;;;7.35;4.88;;;14.30;99.90;;;;;;5072705;28;20051;-65
2023/07/23 02:14:30;;;;;;;8.43;5.55;;;14.20;99.90;;;;;;5073091;28;20048;-65
2023/07/23 02:16:57;;;;;;;8.20;5.22;;;14.20;99.90;;;;;;5073099;28;20060;-66
2023/07/23 02:19:24;;;;;;;8.63;5.95;;;14.30;99.90;;;;;;5072374;28;20439;-65
2023/07/23 02:21:51;;;;;;;8.93;5.63;;;14.20;99.90;;;;;;5055175;28;20102;-65
2023/07/23 02:24:18;;;;;;;8.23;5.35;;;14.20;99.90;;;;;;5051702;28;20443;-65
2023/07/23 02:26:45;;;;;;;9.82;5.65;;;14.30;99.90;;;;;;5073053;28;20048;-65
2023/07/23 02:29:12;;;;;;;10.95;5.72;;;14.30;99.90;;;;;;5072977;28;20511;-66
2023/07/23 02:31:40;;;;;;;10.48;6.85;;;14.20;99.90;;;;;;5054315;28;20049;-66
2023/07/23 02:34:07;;;;;;;11.05;5.60;;;14.20;99.90;;;;;;5072719;28;20511;-66
2023/07/23 02:36:35;;;;;;;9.88;5.55;;;14.20;99.90;;;;;;5072813;28;20044;-66
2023/07/23 02:39:02;;;;;;;8.07;5.30;;;14.20;99.90;;;;;;5054059;28;20127;-66
2023/07/23 02:41:29;;;;;;;9.05;5.30;;;14.20;99.90;;;;;;5072538;28;20048;-65
2023/07/23 02:43:57;;;;;;;10.25;5.75;;;14.20;99.90;;;;;;5072821;28;20408;-62
2023/07/23 02:46:24;;;;;;;8.73;5.03;;;14.20;99.90;;;;;;5051103;28;20048;-61
2023/07/23 02:48:52;;;;;;;9.27;5.78;;;14.20;99.90;;;;;;5054563;28;20055;-61
2023/07/23 02:51:20;;;;;;;9.40;5.68;;;14.20;99.90;;;;;;5054380;28;20117;-62
2023/07/23 02:53:47;;;;;;;11.10;5.80;;;14.20;99.90;;;;;;5072081;28;20060;-61
2023/07/23 02:56:14;;;;;;;11.70;6.30;;;14.20;99.90;;;;;;5054561;28;20041;-60
2023/07/23 02:58:41;;;;;;;11.23;6.00;;;14.20;99.90;;;;;;5053368;28;20044;-61
2023/07/23 03:01:09;;;;;;;9.10;5.45;;;14.30;99.90;;;;;;5071727;28;20055;-62
2023/07/23 03:03:36;;;;;;;9.45;5.60;;;14.20;99.90;;;;;;5072412;28;20424;-62
2023/07/23 03:06:07;;;;;;;9.10;5.22;;;14.30;99.90;;;;;;5072241;28;20044;-62
2023/07/23 03:08:34;;;;;;;9.02;6.10;;;14.30;99.90;;;;;;5036154;28;20056;-62
2023/07/23 03:11:00;;;;;;;10.77;6.47;;;14.30;99.90;;;;;;5034323;28;20079;-62
2023/07/23 03:13:28;;;;;;;10.45;5.82;;;14.30;99.90;;;;;;5051472;28;20041;-62
2023/07/23 03:15:55;;;;;;;13.63;5.68;;;14.30;99.90;;;;;;5052282;28;20068;-62
2023/07/23 03:18:21;;;;;;;8.57;5.43;;;14.30;99.90;;;;;;5052264;28;20049;-61
2023/07/23 03:20:48;;;;;;;9.85;6.05;;;14.30;99.90;;;;;;5051552;28;20048;-61
2023/07/23 03:23:17;;;;;;;8.43;6.30;;;14.30;99.90;;;;;;5051994;28;20045;-61
2023/07/23 03:25:44;;;;;;;12.73;5.97;;;14.30;99.90;;;;;;5049843;28;20516;-62
2023/07/23 03:28:11;;;;;;;11.25;5.93;;;14.30;99.90;;;;;;5051260;28;20120;-61
2023/07/23 03:30:38;;;;;;;9.60;6.53;;;14.30;99.90;;;;;;5050061;28;20041;-61
2023/07/23 03:33:04;;;;;;;11.43;6.30;;;14.30;99.90;;;;;;5052042;28;20040;-61
2023/07/23 03:35:31;;;;;;;19.75;6.03;;;14.30;99.90;;;;;;5033565;28;20056;-62
2023/07/23 03:37:59;;;;;;;10.45;5.82;;;14.30;99.90;;;;;;5051661;28;20113;-61
2023/07/23 03:40:27;;;;;;;10.52;6.05;;;14.30;99.90;;;;;;5051917;28;20451;-61
2023/07/23 03:42:54;;;;;;;11.23;6.32;;;14.30;99.90;;;;;;5050960;28;20049;-62
2023/07/23 03:45:21;;;;;;;11.80;6.60;;;14.30;99.90;;;;;;5051894;28;20048;-61
2023/07/23 03:47:48;;;;;;;11.52;6.68;;;14.30;99.90;;;;;;5033332;28;20440;-60
2023/07/23 03:50:15;;;;;;;14.15;6.55;;;14.30;99.90;;;;;;5051052;28;20045;-61
2023/07/23 03:52:42;;;;;;;10.80;6.60;;;14.30;99.90;;;;;;5033383;28;20174;-61
2023/07/23 03:55:09;;;;;;;8.32;5.93;;;14.30;99.90;;;;;;5051411;28;20053;-61
2023/07/23 03:57:37;;;;;;;9.82;7.20;;;14.30;99.90;;;;;;5051058;28;20049;-63
2023/07/23 04:00:05;;;;;;;10.07;6.22;;;14.30;99.90;;;;;;5037743;28;20444;-63
2023/07/23 04:02:33;;;;;;;11.40;7.03;;;14.30;99.90;;;;;;5053227;28;20430;-61
2023/07/23 04:05:00;;;;;;;10.23;6.35;;;14.30;99.90;;;;;;5036687;28;20064;-62
2023/07/23 04:07:27;;;;;;;13.02;7.60;;;14.20;99.90;;;;;;5037372;28;20053;-62
2023/07/23 04:09:55;;;;;;;12.98;7.82;;;14.20;99.90;;;;;;5054811;28;20052;-61
2023/07/23 04:12:22;;;;;;;11.25;6.85;;;14.20;99.90;;;;;;5055404;28;20626;-62
2023/07/23 04:14:51;;;;;;;13.68;7.90;;;14.20;99.90;;;;;;5055511;28;20135;-62
2023/07/23 04:17:18;;;;;;;10.52;6.65;;;14.20;99.90;;;;;;5054882;28;20485;-61
2023/07/23 04:19:45;;;;;;;10.35;6.85;;;14.20;99.90;;;;;;5037283;28;20459;-62
2023/07/23 04:22:12;;;;;;;10.40;7.15;;;14.30;99.90;;;;;;5055158;28;20118;-62
2023/07/23 04:24:39;;;;;;;17.70;7.65;;;14.30;99.90;;;;;;5054737;28;20045;-61
2023/07/23 04:27:06;;;;;;;8.85;6.10;;;14.20;99.90;;;;;;5054389;28;20041;-61
2023/07/23 04:29:33;;;;;;;11.88;6.53;;;14.30;99.90;;;;;;5055477;28;20048;-61
2023/07/23 04:32:01;;;;;;;12.65;6.95;;;14.20;99.90;;;;;;5054604;28;20053;-60
2023/07/23 04:34:28;;;;;;;13.18;6.93;;;14.20;99.90;;;;;;5037117;28;20485;-61
2023/07/23 04:36:55;;;;;;;19.50;6.75;;;14.30;99.90;;;;;;5054965;28;20057;-61
2023/07/23 04:39:21;;;;;;;11.02;6.95;;;14.30;99.90;;;;;;5054559;28;20048;-60
2023/07/23 04:41:48;;;;;;;15.23;8.02;;;14.30;99.90;;;;;;5055064;28;20053;-61
2023/07/23 04:44:14;;;;;;;12.02;7.22;;;14.30;99.90;;;;;;5036995;28;20489;-60
2023/07/23 04:46:41;;;;;;;11.73;7.07;;;14.30;99.90;;;;;;5036283;28;20056;-60
2023/07/23 04:49:10;;;;;;;13.43;6.97;;;14.30;99.90;;;;;;5054749;28;20049;-60
2023/07/23 04:51:37;;;;;;;11.85;7.40;;;14.30;99.90;;;;;;5054897;28;20053;-60
2023/07/23 04:54:04;;;;;;;11.80;7.10;;;14.30;99.90;;;;;;5054304;28;20041;-62
2023/07/23 04:56:31;;;;;;;11.32;7.18;;;14.40;99.90;;;;;;5054751;28;20516;-62
2023/07/23 04:58:58;;;;;;;15.50;7.35;;;14.40;99.90;;;;;;5035849;28;20088;-61
2023/07/23 05:01:25;;;;;;;14.60;7.65;;;14.40;99.90;;;;;;5054835;28;20052;-61
2023/07/23 05:03:52;;;;;;;10.30;6.72;;;14.40;99.90;;;;;;5036464;28;20061;-61
2023/07/23 05:06:20;;;;;;;8.60;6.68;;;14.40;99.90;;;;;;5035980;28;20455;-62
2023/07/23 05:08:47;;;;;;;12.57;7.40;;;14.40;99.90;;;;;;5071845;28;20056;-63
2023/07/23 05:11:14;;;;;;;9.60;6.30;;;14.40;99.90;;;;;;5071367;28;20047;-61
2023/07/23 05:13:41;;;;;;;11.68;6.90;;;14.40;99.90;;;;;;5073835;28;20040;-61
2023/07/23 05:16:09;;;;;;;11.73;7.07;;;14.40;99.90;;;;;;5054466;28;20056;-62
2023/07/23 05:18:36;;;;;;;10.15;6.82;;;14.40;99.90;;;;;;5074007;28;20052;-64
2023/07/23 05:21:04;;;;;;;10.82;7.03;;;14.40;99.90;;;;;;5073732;28;20561;-64
2023/07/23 05:23:32;;;;;;;16.05;8.13;;;14.40;99.90;;;;;;5056180;28;20412;-64
2023/07/23 05:25:59;;;;;;;9.80;6.63;;;14.40;99.90;;;;;;5074419;28;20052;-64
2023/07/23 05:28:26;;;;;;;12.02;7.40;;;14.40;99.90;;;;;;5053107;28;20045;-64
2023/07/23 05:30:57;;;;;;;13.60;7.80;;;14.50;99.90;;;;;;5055886;28;20056;-64
2023/07/23 05:33:24;;;;;;;11.98;8.02;;;14.40;99.90;;;;;;5056138;28;20484;-65
2023/07/23 05:35:52;;;;;;;14.20;8.52;;;14.50;99.90;;;;;;5073521;28;20080;-64
2023/07/23 05:38:19;;;;;;;12.45;7.85;;;14.50;99.90;;;;;;5074014;28;20110;-64
2023/07/23 05:40:55;;;;;;;13.35;8.57;;;14.50;99.90;;;;;;5074118;28;20040;-64
2023/07/23 05:43:21;;;;;;;13.20;8.10;;;14.50;99.90;;;;;;5071020;28;20051;-64
2023/07/23 05:45:48;;;;;;;12.98;7.82;;;14.50;99.90;;;;;;5055867;28;20063;-64
2023/07/23 05:48:15;;;;;;;12.30;8.30;;;14.60;99.90;;;;;;5073236;28;20045;-64
2023/07/23 05:50:42;;;;;;;12.85;7.97;;;14.50;99.90;;;;;;5073844;28;20055;-65
2023/07/23 05:53:10;;;;;;;14.20;8.63;;;14.60;99.90;;;;;;5073584;28;20056;-65
2023/07/23 05:55:37;;;;;;;13.68;9.23;;;14.60;99.90;;;;;;5055169;28;20503;-64
2023/07/23 05:58:05;;;;;;;14.45;8.63;;;14.60;99.90;;;;;;5073706;28;20377;-65
2023/07/23 06:00:32;;;;;;;13.40;8.25;;;14.60;99.90;;;;;;5073783;28;20102;-65
2023/07/23 06:02:59;;;;;;;14.38;8.52;;;14.70;99.90;;;;;;5073061;28;20056;-64
2023/07/23 06:05:26;;;;;;;13.30;8.15;;;14.70;99.90;;;;;;5073379;28;20045;-63
2023/07/23 06:07:53;;;;;;;13.70;8.65;;;14.70;99.90;;;;;;5055327;28;20488;-63
2023/07/23 06:10:20;;;;;;;12.05;8.32;;;14.70;99.90;;;;;;5072590;28;20032;-63
2023/07/23 06:12:47;;;;;;;14.05;8.25;;;14.80;99.90;;;;;;5073527;28;20052;-64
2023/07/23 06:15:15;;;;;;;12.63;8.05;;;14.80;99.90;;;;;;5055082;28;20094;-64
2023/07/23 06:17:42;;;;;;;16.70;9.32;;;14.80;99.90;;;;;;5072828;28;20050;-64
2023/07/23 06:20:10;;;;;;;14.32;8.02;;;14.80;99.90;;;;;;5073046;28;20045;-64
2023/07/23 06:22:37;;;;;;;16.10;9.23;;;14.90;99.90;;;;;;5073310;28;20420;-64
2023/07/23 06:25:04;;;;;;;13.27;9.02;;;14.90;99.90;;;;;;5070232;28;20439;-64
2023/07/23 06:27:31;;;;;;;12.77;8.95;;;15.00;99.90;;;;;;5072943;28;20044;-64
2023/07/23 06:29:58;;;;;;;10.35;7.57;;;15.00;99.90;;;;;;5055156;28;20512;-65
2023/07/23 06:32:26;;;;;;;14.68;8.20;;;15.10;99.90;;;;;;5072365;28;20040;-67
2023/07/23 06:34:53;;;;;;;13.00;8.13;;;15.10;99.90;;;;;;5054881;28;20118;-63
2023/07/23 06:37:20;;;;;;;10.07;7.45;;;15.20;99.90;;;;;;5072894;28;20048;-64
2023/07/23 06:39:47;;;;;;;13.95;7.68;;;15.20;99.90;;;;;;5072301;28;20048;-64
2023/07/23 06:42:14;;;;;;;13.07;8.02;;;15.20;99.90;;;;;;5054856;28;20420;-61
2023/07/23 06:44:42;;;;;;;10.85;8.38;;;15.30;99.90;;;;;;5072125;28;20055;-61
2023/07/23 06:47:09;;;;;;;16.10;9.10;;;15.30;99.90;;;;;;5054623;28;20079;-62
2023/07/23 06:49:37;;;;;;;13.65;8.20;;;15.30;99.90;;;;;;5072495;28;20072;-62
2023/07/23 06:52:05;;;;;;;13.75;8.52;;;15.30;99.90;;;;;;5052082;28;20058;-62
2023/07/23 06:54:32;;;;;;;15.32;9.07;;;15.40;99.90;;;;;;5054150;28;20102;-62
2023/07/23 06:56:59;;;;;;;12.95;8.48;;;15.40;99.90;;;;;;5054595;28;20187;-63
2023/07/23 06:59:26;;;;;;;15.25;8.60;;;15.50;99.90;;;;;;5071888;28;20091;-61
2023/07/23 07:01:53;;;;;;;11.93;7.82;;;15.60;99.90;;;;;;5054369;28;20059;-64
2023/07/23 07:04:20;;;;;;;13.50;8.40;;;15.60;99.90;;;;;;5072121;28;20409;-64
2023/07/23 07:06:49;;;;;;;15.15;9.07;;;15.70;99.90;;;;;;5071394;28;20492;-63
2023/07/23 07:09:16;;;;;;;10.82;8.20;;;15.60;99.90;;;;;;5072307;28;20048;-63
2023/07/23 07:11:43;;;;;;;14.90;8.07;;;15.60;99.90;;;;;;5054435;28;20131;-63
2023/07/23 07:14:10;;;;;;;13.80;8.27;;;15.70;99.90;;;;;;5053300;28;20097;-61
2023/07/23 07:16:38;;;;;;;13.68;8.50;;;15.70;99.90;;;;;;5054387;28;20048;-61
2023/07/23 07:19:05;;;;;;;15.02;9.48;;;15.60;99.90;;;;;;5072072;28;20090;-62
2023/07/23 07:21:32;;;;;;;11.95;8.75;;;15.60;99.90;;;;;;5071567;28;20052;-61
2023/07/23 07:24:00;;;;;;;13.00;7.93;;;15.60;99.90;;;;;;5054180;28;20045;-62
2023/07/23 07:26:27;;;;;;;12.85;8.43;;;15.50;99.90;;;;;;5072244;28;20044;-63
2023/07/23 07:28:54;;;;;;;13.30;8.73;;;15.50;99.90;;;;;;5069459;28;20109;-62
2023/07/23 07:31:21;;;;;;;14.50;8.55;;;15.60;99.90;;;;;;5046829;28;20422;-62
2023/07/23 07:33:48;;;;;;;15.23;8.73;;;15.60;99.90;;;;;;5044313;28;20052;-62
2023/07/23 07:36:15;;;;;;;12.48;8.88;;;15.60;99.90;;;;;;5068259;28;20044;-63
2023/07/23 07:38:41;;;;;;;14.18;8.48;;;15.60;99.90;;;;;;5067285;28;20048;-62
2023/07/23 07:41:10;;;;;;;14.90;8.95;;;15.60;99.90;;;;;;5068757;28;20102;-62
2023/07/23 07:43:37;;;;;;;14.82;9.30;;;15.60;99.90;;;;;;5070758;28;20488;-63
2023/07/23 07:46:06;;;;;;;13.95;8.85;;;15.60;99.90;;;;;;5068144;28;20051;-62
2023/07/23 07:48:33;;;;;;;13.15;9.00;;;15.70;99.90;;;;;;5070345;28;20052;-62
2023/07/23 07:50:59;;;;;;;16.95;8.85;;;15.70;99.90;;;;;;5068976;28;20055;-62
2023/07/23 07:53:26;;;;;;;17.27;9.43;;;15.80;99.90;;;;;;5052754;28;20040;-62
2023/07/23 07:55:54;;;;;;;16.13;9.30;;;15.80;99.90;;;;;;5069433;28;20052;-62
2023/07/23 07:58:24;;;;;;;13.32;8.57;;;15.80;99.90;;;;;;5051186;28;20045;-62
2023/07/23 08:00:54;;;;;;;13.60;8.93;;;15.80;99.90;;;;;;5070035;28;20560;-61
2023/07/23 08:03:22;;;;;;;15.75;8.98;;;15.80;99.90;;;;;;5068180;28;20102;-61
2023/07/23 08:05:49;;;;;;;15.40;9.52;;;15.70;99.90;;;;;;5069378;28;20353;-61
2023/07/23 08:08:18;;;;;;;13.07;8.68;;;15.80;99.90;;;;;;5067365;28;20044;-61
2023/07/23 08:10:46;;;;;;;12.48;8.50;;;15.70;99.90;;;;;;5070404;28;20052;-62
2023/07/23 08:13:15;;;;;;;13.93;8.68;;;15.80;99.90;;;;;;5050414;28;20075;-63
2023/07/23 08:15:44;;;;;;;17.08;9.85;;;15.80;99.90;;;;;;5053163;28;20114;-63
2023/07/23 08:18:11;;;;;;;17.23;9.43;;;15.80;99.90;;;;;;5062756;28;20045;-63
2023/07/23 08:20:39;;;;;;;15.55;9.93;;;15.80;99.90;;;;;;5071220;28;20053;-62
2023/07/23 08:23:06;;;;;;;13.57;8.77;;;15.80;99.90;;;;;;5066645;28;20044;-63
2023/07/23 08:25:35;;;;;;;12.85;7.95;;;15.80;99.90;;;;;;5071083;28;20377;-63
2023/07/23 08:28:02;;;;;;;15.07;8.73;;;15.80;99.90;;;;;;5066873;28;20051;-62
2023/07/23 08:30:31;;;;;;;13.68;8.10;;;15.90;99.90;;;;;;5070435;28;20045;-63
2023/07/23 08:33:01;;;;;;;12.15;9.00;;;15.80;99.90;;;;;;5067627;28;20051;-63
2023/07/23 08:35:30;;;;;;;15.38;10.05;;;15.90;99.90;;;;;;5052254;28;20525;-63
2023/07/23 08:37:57;;;;;;;13.23;9.88;;;15.80;99.90;;;;;;5050773;28;20044;-62
2023/07/23 08:40:26;;;;;;;12.10;9.32;;;15.90;99.90;;;;;;5050802;28;20056;-62
2023/07/23 08:43:45;;;;;;;13.95;9.55;;;15.90;99.90;;;;;;5070511;28;20531;-63
2023/07/23 08:46:25;;;;;;;12.32;9.18;;;15.90;99.90;;;;;;4962182;28;20062;-62
2023/07/23 08:49:04;;;;;;;12.15;9.73;;;15.90;99.90;;;;;;5072769;28;20045;-62
2023/07/23 08:51:35;;;;;;;16.30;9.00;;;16.00;99.90;;;;;;5054434;28;20063;-64
2023/07/23 08:54:06;;;;;;;11.05;9.05;;;16.00;99.90;;;;;;5074314;28;20048;-63
2023/07/23 08:56:33;;;;;;;13.18;8.93;;;16.00;99.90;;;;;;5073288;28;20044;-63
2023/07/23 08:59:03;;;;;;;12.13;8.95;;;16.00;99.90;;;;;;5073019;28;20377;-64
2023/07/23 09:01:34;;;;;;;15.27;9.27;;;16.10;99.90;;;;;;5071712;28;20052;-63
2023/07/23 09:04:04;;;;;;;14.25;8.70;;;16.10;99.90;;;;;;5054084;28;20465;-63
2023/07/23 09:06:32;;;;;;;15.43;8.90;;;16.10;99.90;;;;;;5071164;28;20048;-64
2023/07/23 09:09:07;;;;;;;12.48;9.10;;;16.10;99.90;;;;;;5071933;28;20464;-63
2023/07/23 09:11:34;;;;;;;12.73;8.20;;;16.10;99.90;;;;;;5055501;28;20056;-62
2023/07/23 09:14:03;;;;;;;11.05;8.55;;;16.10;99.90;;;;;;5071487;28;20056;-63
2023/07/23 09:16:30;;;;;;;12.52;9.15;;;16.10;99.90;;;;;;5073952;28;20464;-62
2023/07/23 09:18:57;;;;;;;11.90;8.48;;;16.10;99.90;;;;;;5053783;28;20504;-62
2023/07/23 09:21:27;;;;;;;19.17;9.35;;;16.10;99.90;;;;;;5054881;28;20056;-62
2023/07/23 09:23:55;;;;;;;11.40;8.13;;;16.10;99.90;;;;;;5069685;28;20048;-63
2023/07/23 09:26:24;;;;;;;11.98;8.73;;;16.10;99.90;;;;;;5072786;28;20131;-61
2023/07/23 09:28:53;;;;;;;11.75;8.73;;;16.10;99.90;;;;;;5070273;28;20131;-62
2023/07/23 09:31:26;;;;;;;12.82;8.63;;;16.20;99.90;;;;;;5054909;28;20551;-63
2023/07/23 09:33:57;;;;;;;12.40;8.70;;;16.20;99.90;;;;;;5071962;28;20588;-63
2023/07/23 09:36:26;;;;;;;10.85;8.68;;;16.30;99.90;;;;;;5071944;28;20052;-63
2023/07/23 09:38:55;;;;;;;11.82;8.20;;;16.30;99.90;;;;;;5073363;28;20064;-63
2023/07/23 09:41:22;;;;;;;10.57;8.07;;;16.30;99.90;;;;;;5071706;28;20059;-63
2023/07/23 09:43:49;;;;;;;11.07;8.15;;;16.30;99.90;;;;;;5073200;28;20079;-63
2023/07/23 09:46:16;;;;;;;12.93;8.07;;;16.40;99.90;;;;;;5071281;28;20048;-63
2023/07/23 09:48:45;;;;;;;11.77;7.60;;;16.30;99.90;;;;;;5072376;28;20492;-63
2023/07/23 09:51:12;;;;;;;11.50;7.68;;;16.30;99.90;;;;;;5053246;28;20045;-63
2023/07/23 09:53:45;;;;;;;10.80;7.38;;;16.30;99.90;;;;;;5055169;28;20106;-66
2023/07/23 09:56:13;;;;;;;10.88;7.78;;;16.30;99.90;;;;;;5052106;28;20052;-67
2023/07/23 09:58:43;;;;;;;11.52;8.07;;;16.30;99.90;;;;;;5068125;28;20480;-61
2023/07/23 10:01:10;;;;;;;11.32;8.00;;;16.30;99.90;;;;;;5070990;28;20051;-62
2023/07/23 10:03:38;;;;;;;11.15;8.18;;;16.30;99.90;;;;;;5054593;28;20053;-62
2023/07/23 10:06:10;;;;;;;16.70;7.85;;;16.30;99.90;;;;;;5052403;28;20455;-62
2023/07/23 10:08:39;;;;;;;13.82;8.32;;;16.30;99.90;;;;;;5071844;28;20052;-63
2023/07/23 10:11:08;;;;;;;13.02;8.25;;;16.30;99.90;;;;;;5070554;28;20055;-62
2023/07/23 10:13:36;;;;;;;11.68;8.50;;;16.20;99.90;;;;;;5071476;28;20108;-63
2023/07/23 10:16:05;;;;;;;12.57;7.95;;;16.20;99.90;;;;;;5071555;28;20053;-64
2023/07/23 10:18:35;;;;;;;17.35;8.32;;;16.20;99.90;;;;;;5070881;28;20047;-62
2023/07/23 10:21:04;;;;;;;13.23;8.68;;;16.30;99.90;;;;;;5072420;28;20404;-63
2023/07/23 10:23:31;;;;;;;10.80;7.88;;;16.30;99.90;;;;;;5052138;28;20126;-63
2023/07/23 10:26:23;;;;;;;10.25;7.82;;;16.30;99.90;;;;;;5049325;28;20102;-63
2023/07/23 10:28:51;;;;;;;12.20;8.07;;;16.30;99.90;;;;;;5057722;28;20048;-63
2023/07/23 10:31:23;;;;;;;10.45;7.22;;;16.40;99.90;;;;;;5053142;28;20056;-62
2023/07/23 10:33:51;;;;;;;13.00;7.50;;;16.40;99.90;;;;;;5070829;28;20145;-62
2023/07/23 10:36:19;;;;;;;10.07;7.43;;;16.40;99.90;;;;;;5071860;28;20464;-63
2023/07/23 10:38:46;;;;;;;13.25;8.15;;;16.50;99.90;;;;;;5067459;28;20105;-62
2023/07/23 10:41:14;;;;;;;11.35;7.90;;;16.50;99.90;;;;;;5069916;28;20044;-63
2023/07/23 10:43:44;;;;;;;11.52;7.57;;;16.50;99.90;;;;;;5066823;28;20294;-62
2023/07/23 10:46:12;;;;;;;12.38;7.55;;;16.50;99.90;;;;;;5052330;28;20105;-62
2023/07/23 10:48:44;;;;;;;19.63;7.63;;;16.60;99.90;;;;;;5069191;28;20051;-62
2023/07/23 10:51:13;;;;;;;10.00;7.20;;;16.60;99.90;;;;;;5049075;28;20497;-62
2023/07/23 10:53:42;;;;;;;10.30;6.60;;;16.70;99.90;;;;;;5051816;28;20059;-63
2023/07/23 10:56:26;;;;;;;13.38;7.32;;;16.70;99.90;;;;;;5067311;28;20396;-64
2023/07/23 10:59:03;;;;;;;9.30;7.22;;;16.80;99.90;;;;;;5050058;28;20071;-63
2023/07/23 11:01:35;;;;;;;12.90;7.88;;;16.80;99.90;;;;;;5069894;28;20052;-62
2023/07/23 11:04:08;;;;;;;11.27;6.75;;;16.80;99.90;;;;;;5071844;28;20040;-63
2023/07/23 11:06:36;;;;;;;10.18;6.82;;;16.90;99.90;;;;;;5068567;28;20048;-62
2023/07/23 11:09:05;;;;;;;10.05;7.03;;;16.90;99.90;;;;;;5070139;28;20055;-63
2023/07/23 11:11:37;;;;;;;12.70;6.68;;;17.00;99.90;;;;;;5049921;28;20044;-62
2023/07/23 11:14:18;;;;;;;10.13;6.38;;;17.00;99.90;;;;;;5051856;28;20102;-62
2023/07/23 11:16:46;;;;;;;9.43;6.70;;;17.00;99.90;;;;;;5071192;28;20086;-63
2023/07/23 11:19:13;;;;;;;10.18;7.03;;;17.10;99.90;;;;;;5068023;28;20059;-62
2023/07/23 11:21:49;;;;;;;10.02;7.03;;;17.10;99.90;;;;;;5053234;28;20051;-62
2023/07/23 11:24:16;;;;;;;9.88;6.93;;;17.10;99.90;;;;;;5068642;28;20049;-63
2023/07/23 11:26:43;;;;;;;9.30;6.55;;;17.10;99.90;;;;;;5052662;28;20978;-62
2023/07/23 11:29:12;;;;;;;11.55;6.53;;;17.20;99.90;;;;;;5068744;28;20081;-63
2023/07/23 11:31:40;;;;;;;9.45;7.03;;;17.20;99.90;;;;;;5051715;28;20056;-62
2023/07/23 11:34:08;;;;;;;10.40;7.18;;;17.20;99.90;;;;;;5068703;28;20400;-62
2023/07/23 11:36:36;;;;;;;9.35;7.03;;;17.30;99.90;;;;;;5069212;28;20049;-62
2023/07/23 11:39:03;;;;;;;10.57;6.60;;;17.20;99.90;;;;;;5068967;28;20037;-62
2023/07/23 11:41:32;;;;;;;9.32;6.70;;;17.20;99.90;;;;;;5050026;28;20094;-62
2023/07/23 11:44:03;;;;;;;13.30;6.68;;;17.20;99.90;;;;;;5069844;28;20052;-63
2023/07/23 11:46:33;;;;;;;9.25;6.10;;;17.30;99.90;;;;;;5070162;28;20118;-63
2023/07/23 11:49:00;;;;;;;9.68;6.32;;;17.20;99.90;;;;;;5051759;28;20072;-63
2023/07/23 11:51:28;;;;;;;9.23;6.32;;;17.20;99.90;;;;;;5069769;28;20383;-63
2023/07/23 11:54:02;;;;;;;10.30;6.88;;;17.10;99.90;;;;;;5068683;28;20052;-61
2023/07/23 11:56:31;;;;;;;12.30;6.70;;;17.10;99.90;;;;;;5068491;28;20578;-61
2023/07/23 11:59:03;;;;;;;13.95;6.15;;;17.10;99.90;;;;;;5052120;28;20087;-61
2023/07/23 12:01:32;;;;;;;8.88;6.57;;;17.10;99.90;;;;;;5066485;28;20041;-61
2023/07/23 12:04:00;;;;;;;12.57;6.22;;;17.10;99.90;;;;;;5070959;28;20052;-61
2023/07/23 12:06:29;;;;;;;9.40;6.50;;;17.10;99.90;;;;;;5068698;28;20076;-61
2023/07/23 12:08:56;;;;;;;10.82;7.05;;;17.10;99.90;;;;;;5069349;28;20045;-61
2023/07/23 12:11:24;;;;;;;12.50;6.05;;;17.10;99.90;;;;;;5068993;28;20382;-61
2023/07/23 12:13:52;;;;;;;11.98;6.82;;;17.00;99.90;;;;;;5052165;28;20484;-60
2023/07/23 12:16:35;;;;;;;9.48;6.55;;;17.10;99.90;;;;;;5050727;28;20056;-60
2023/07/23 12:19:04;;;;;;;9.75;6.90;;;17.10;99.90;;;;;;5071432;28;20036;-60
2023/07/23 12:21:34;;;;;;;11.30;6.47;;;17.20;99.90;;;;;;5071557;28;20131;-60
2023/07/23 12:24:16;;;;;;;8.65;5.53;;;17.20;99.90;;;;;;5054152;28;20052;-61
2023/07/23 12:26:43;;;;;;;10.75;6.40;;;17.20;99.90;;;;;;5054182;28;20489;-60
2023/07/23 12:29:10;;;;;;;8.35;5.75;;;17.30;99.90;;;;;;5071537;28;20393;-60
2023/07/23 12:31:42;;;;;;;9.23;5.72;;;17.40;99.90;;;;;;5073933;28;20095;-59
2023/07/23 12:34:09;;;;;;;6.95;5.20;;;17.60;99.90;;;;;;5070965;28;20102;-60
2023/07/23 12:36:36;;;;;;;10.50;6.03;;;17.70;99.90;;;;;;5073462;28;20048;-60
2023/07/23 12:39:04;;;;;;;10.27;5.90;;;17.80;99.90;;;;;;5049867;28;20045;-60
2023/07/23 12:41:30;;;;;;;6.90;4.95;;;18.00;99.90;;;;;;5053410;28;20148;-61
2023/07/23 12:43:57;;;;;;;7.93;6.00;;;18.20;99.90;;;;;;5072236;28;20356;-63